Latest Coastal Weather Observations for Melbourne (Olympic Park)

IDV60701

Issued at 1:35 am EDT Friday 24 October 2014 (issued every 10 minutes, with the page automatically refreshed every 10 minutes)

About coastal observations | Map of coastal stations | Coastal observations for VIC | Marine services | Other Formats
Station Details ID: 086338 Name: MELBOURNE (OLYMPIC PARK) Lat: -37.83 Lon: 144.98 Height: 7.53 m
Data from the previous 72 hours. | See also: Recent months at Melbourne (Olympic Park)
Date/Time
EDT
Temp

°C
Wind Pressure Rain
since 9am
mm
Weather Cloud Vis
km
Sea
Height
m
Swell
Dir
 
Speed
knots
Gust
knots
hPa Trend Height
m
Period
s
Dir
24/01:30am 15.2 NNW 6 9 1014.1 - 0.0 - - - - - - -
24/01:00am 15.4 NW 2 7 1014.4 - 0.0 - - - - - - -
24/12:30am 15.4 N 4 6 1014.5 - 0.0 - - - - - - -
24/12:00am 15.4 NNW 0 5 1014.9 - 0.0 - - - - - - -
 
Date/Time
EDT
Temp

°C
Wind Pressure Rain
since 9am
mm
Weather Cloud Vis
km
Sea
Height
m
Swell
Dir
 
Speed
knots
Gust
knots
hPa Trend Height
m
Period
s
Dir
23/11:30pm 15.2 CALM 0 0 1015.0 - 0.0 - - - - - - -
23/11:00pm 15.6 CALM 0 0 1015.1 - 0.0 - - - - - - -
23/10:30pm 16.1 CALM 0 0 1015.2 - 0.0 - - - - - - -
23/10:00pm 16.6 CALM 0 0 1015.4 - 0.0 - - - - - - -
23/09:30pm 17.1 SE 1 5 1015.2 - 0.0 - - - - - - -
23/09:00pm 17.4 SE 3 7 1015.0 - 0.0 - - - - - - -
23/08:30pm 17.8 SSE 4 7 1014.8 - 0.0 - - - - - - -
23/08:00pm 18.4 SSE 4 8 1014.7 - 0.0 - - - - - - -
23/07:30pm 19.1 SSE 5 10 1014.9 - 0.0 - - - - - - -
23/07:00pm 20.0 SSE 8 13 1014.8 - 0.0 - - - - - - -
23/06:30pm 20.9 SSE 7 14 1014.7 - 0.0 - - - - - - -
23/06:00pm 21.5 SSE 8 11 1014.8 - 0.0 - - - - - - -
23/05:30pm 22.0 SW 5 12 1014.9 - 0.0 - - - - - - -
23/05:00pm 19.8 WSW 7 11 1015.3 - 0.0 - - - - - - -
23/04:30pm 18.7 WSW 8 11 1015.8 - 0.0 - - - - - - -
23/04:00pm 18.0 SW 7 14 1016.2 - 0.0 - - - - - - -
23/03:30pm 18.0 SSW 7 11 1016.7 - 0.0 - - - - - - -
23/03:00pm 17.6 SW 7 11 1017.1 - 0.0 - - - - - - -
23/02:30pm 17.5 SW 6 11 1017.7 - 0.0 - - - - - - -
23/02:00pm 17.1 SSW 6 11 1018.0 - 0.0 - - - - - - -
23/01:30pm 16.4 SSW 6 11 1018.3 - 0.0 - - - - - - -
23/01:00pm 16.3 SSW 7 11 1018.9 - 0.0 - - - - - - -
23/12:30pm 15.7 SSW 6 9 1019.2 - 0.0 - - - - - - -
23/12:00pm 15.5 SSW 5 9 1019.6 - 0.0 - - - - - - -
23/11:30am 15.4 SSW 5 9 1019.8 - 0.0 - - - - - - -
23/11:00am 15.4 SSW 4 7 1020.2 - 0.0 - - - - - - -
23/10:30am 15.5 SSW 5 9 1020.3 - 0.0 - - - - - - -
23/10:00am 15.2 SSW 4 7 1020.3 - 0.0 - - - - - - -
23/09:30am 14.8 SSW 3 7 1020.6 - 0.0 - - - - - - -
23/09:00am 14.9 SSW 4 8 1020.5 - 0.0 - - - - - - -
23/08:30am 15.0 SSE 5 8 1020.5 - 0.0 - - - - - - -
23/08:00am 15.3 SSE 4 9 1020.2 - 0.0 - - - - - - -
23/07:30am 15.2 S 5 8 1020.1 - 0.0 - - - - - - -
23/07:00am 15.3 S 5 11 1019.7 - 0.0 - - - - - - -
23/06:30am 15.3 S 3 6 1019.5 - 0.0 - - - - - - -
23/06:00am 15.2 SSW 6 10 1019.2 - 0.0 - - - - - - -
23/05:30am 15.2 S 5 11 1018.8 - 0.0 - - - - - - -
23/05:00am 15.0 WSW 3 7 1018.6 - 0.0 - - - - - - -
23/04:30am 14.9 SW 4 8 1018.5 - 0.0 - - - - - - -
23/04:00am 14.9 SW 4 9 1018.4 - 0.0 - - - - - - -
23/03:30am 15.0 SSW 4 7 1018.7 - 0.0 - - - - - - -
23/03:00am 15.0 SSW 5 8 1019.1 - 0.0 - - - - - - -
23/02:30am 15.1 SSW 5 9 1019.2 - 0.0 - - - - - - -
23/02:00am 15.2 SW 6 11 1019.3 - 0.0 - - - - - - -
23/01:30am 15.7 SSW 5 11 1019.6 - 0.0 - - - - - - -
23/01:00am 15.5 SW 3 6 1018.8 - 0.0 - - - - - - -
23/12:30am 15.7 S 4 6 1018.9 - 0.0 - - - - - - -
23/12:00am 15.7 SSW 5 11 1019.1 - 0.0 - - - - - - -
 
Date/Time
EDT
Temp

°C
Wind Pressure Rain
since 9am
mm
Weather Cloud Vis
km
Sea
Height
m
Swell
Dir
 
Speed
knots
Gust
knots
hPa Trend Height
m
Period
s
Dir
22/11:30pm 15.5 SSW 7 11 1018.7 - 0.0 - - - - - - -
22/11:00pm 15.7 S 8 13 1018.6 - 0.0 - - - - - - -
22/10:30pm 16.6 SSW 8 16 1018.8 - 0.0 - - - - - - -
22/10:00pm 18.8 SSW 6 13 1018.4 - 0.0 - - - - - - -
22/09:30pm 19.6 SW 8 15 1018.0 - 0.0 - - - - - - -
22/09:00pm 20.9 SW 9 14 1016.9 - 0.0 - - - - - - -
22/08:55pm 21.5 SW 9 15 1016.8 - 0.0 - - - - - - -
22/08:30pm 26.5 WSW 5 9 1015.5 - 0.0 - - - - - - -
22/08:00pm 27.9 NNW 7 13 1014.7 - 0.0 - - - - - - -
22/07:30pm 28.8 N 8 12 1014.4 - 0.0 - - - - - - -
22/07:00pm 29.4 N 8 11 1013.9 - 0.0 - - - - - - -
22/06:30pm 29.9 N 10 15 1013.8 - 0.0 - - - - - - -
22/06:00pm 29.9 N 9 17 1014.1 - 0.0 - - - - - - -
22/05:30pm 29.8 N 11 17 1014.4 - 0.0 - - - - - - -
22/05:00pm 30.3 NNW 10 17 1014.5 - 0.0 - - - - - - -
22/04:30pm 30.2 N 10 16 1014.5 - 0.0 - - - - - - -
22/04:00pm 30.9 N 10 15 1014.7 - 0.0 - - - - - - -
22/03:30pm 31.3 NNW 10 18 1014.8 - 0.0 - - - - - - -
22/03:00pm 31.5 N 10 14 1015.2 - 0.0 - - - - - - -
22/02:30pm 31.4 N 9 15 1015.6 - 0.0 - - - - - - -
22/02:00pm 30.6 N 9 15 1016.0 - 0.0 - - - - - - -
22/01:30pm 29.4 N 12 16 1016.6 - 0.0 - - - - - - -
22/01:00pm 28.2 N 12 18 1016.9 - 0.0 - - - - - - -
22/12:30pm 27.9 N 13 19 1017.4 - 0.0 - - - - - - -
22/12:00pm 26.9 N 12 19 1017.8 - 0.0 - - - - - - -
22/11:30am 25.8 N 12 19 1018.5 - 0.0 - - - - - - -
22/11:00am 24.7 N 14 20 1019.0 - 0.0 - - - - - - -
22/10:30am 23.9 N 13 23 1019.3 - 0.0 - - - - - - -
22/10:00am 22.8 N 15 25 1019.4 - 0.0 - - - - - - -
22/09:30am 22.1 N 13 23 1019.4 - 0.0 - - - - - - -
22/09:00am 21.1 N 13 23 1019.5 - 0.0 - - - - - - -
22/08:30am 20.4 N 12 26 1019.5 - 0.0 - - - - - - -
22/08:00am 19.4 N 10 18 1019.7 - 0.0 - - - - - - -
22/07:30am 18.9 N 10 15 1019.7 - 0.0 - - - - - - -
22/07:00am 18.4 N 8 14 1019.7 - 0.0 - - - - - - -
22/06:30am 18.3 N 8 13 1019.7 - 0.0 - - - - - - -
22/06:00am 18.4 N 8 11 1019.6 - 0.0 - - - - - - -
22/05:30am 17.9 N 6 11 1019.5 - 0.0 - - - - - - -
22/05:00am 16.9 NNE 6 8 1019.4 - 0.0 - - - - - - -
22/04:30am 16.3 NNE 7 8 1019.4 - 0.0 - - - - - - -
22/04:00am 16.6 NNE 6 8 1019.6 - 0.0 - - - - - - -
22/03:30am 16.5 NNE 6 7 1019.9 - 0.0 - - - - - - -
22/03:00am 16.4 NNE 6 7 1020.2 - 0.0 - - - - - - -
22/02:30am 15.6 CALM 0 3 1020.5 - 0.0 - - - - - - -
22/02:00am 16.7 N 2 7 1020.6 - 0.0 - - - - - - -
22/01:30am 17.4 NNE 5 6 1020.9 - 0.0 - - - - - - -
22/01:00am 17.8 N 4 5 1021.3 - 0.0 - - - - - - -
22/12:30am 18.3 NNE 3 5 1021.7 - 0.0 - - - - - - -
22/12:00am 17.8 N 2 5 1022.1 - 0.0 - - - - - - -
 
Date/Time
EDT
Temp

°C
Wind Pressure Rain
since 9am
mm
Weather Cloud Vis
km
Sea
Height
m
Swell
Dir
 
Speed
knots
Gust
knots
hPa Trend Height
m
Period
s
Dir
21/11:30pm 18.4 ENE 3 5 1022.3 - 0.0 - - - - - - -
21/11:00pm 17.9 CALM 0 0 1022.5 - 0.0 - - - - - - -
21/10:30pm 19.8 NE 2 5 1022.6 - 0.0 - - - - - - -
21/10:00pm 18.6 CALM 0 0 1022.6 - 0.0 - - - - - - -
21/09:30pm 19.9 CALM 0 0 1022.5 - 0.0 - - - - - - -
21/09:00pm 21.1 ESE 1 4 1022.3 - 0.0 - - - - - - -
21/08:30pm 21.9 SSE 2 5 1022.1 - 0.0 - - - - - - -
21/08:00pm 22.8 ESE 4 7 1022.1 - 0.0 - - - - - - -
21/07:30pm 23.8 ESE 5 8 1021.9 - 0.0 - - - - - - -
21/07:00pm 24.7 SE 7 11 1021.8 - 0.0 - - - - - - -
21/06:30pm 25.8 SSE 6 9 1021.7 - 0.0 - - - - - - -
21/06:00pm 26.4 S 6 11 1021.7 - 0.0 - - - - - - -
21/05:30pm 27.2 SE 5 9 1021.6 - 0.0 - - - - - - -
21/05:00pm 27.9 S 4 7 1021.8 - 0.0 - - - - - - -
21/04:30pm 27.9 SSW 3 7 1022.0 - 0.0 - - - - - - -
21/04:00pm 27.2 SSE 5 7 1022.2 - 0.0 - - - - - - -
21/03:30pm 27.1 SSW 5 9 1022.8 - 0.0 - - - - - - -
21/03:00pm 27.2 N 6 11 1023.2 - 0.0 - - - - - - -
21/02:30pm 26.8 NW 6 11 1023.7 - 0.0 - - - - - - -
21/02:00pm 25.8 NNW 9 13 1024.2 - 0.0 - - - - - - -
21/01:30pm 25.5 NE 7 11 1024.7 - 0.0 - - - - - - -
21/01:00pm 24.2 NNE 5 11 1025.1 - 0.0 - - - - - - -
21/12:30pm 23.1 NE 7 11 1025.5 - 0.0 - - - - - - -
21/12:00pm 21.6 ENE 6 11 1025.9 - 0.0 - - - - - - -
21/11:30am 20.9 NE 6 10 1026.4 - 0.0 - - - - - - -
21/11:00am 19.8 NE 6 9 1026.8 - 0.0 - - - - - - -
21/10:30am 18.5 ENE 4 7 1027.1 - 0.0 - - - - - - -
21/10:00am 16.7 ENE 4 7 1027.5 - 0.0 - - - - - - -
21/09:30am 14.8 NE 5 7 1027.6 - 0.0 - - - - - - -
21/09:00am 13.4 NE 4 7 1027.6 - 0.0 - - - - - - -
21/08:30am 11.2 NNE 5 7 1027.7 - 0.0 - - - - - - -
21/08:00am 10.2 NE 5 6 1027.3 - 0.0 - - - - - - -
21/07:30am 8.8 NNE 5 6 1027.1 - 0.0 - - - - - - -
21/07:00am 8.2 NNE 5 6 1026.9 - 0.0 - - - - - - -
21/06:30am 8.1 NNE 5 7 1026.8 - 0.0 - - - - - - -
21/06:00am 8.3 NNE 6 8 1026.4 - 0.0 - - - - - - -
21/05:30am 8.6 NNE 6 7 1026.2 - 0.0 - - - - - - -
21/05:00am 9.0 NNE 2 5 1026.3 - 0.0 - - - - - - -
21/04:30am 9.0 NNE 4 6 1026.3 - 0.0 - - - - - - -
21/04:00am 8.4 CALM 0 3 1026.3 - 0.0 - - - - - - -
21/03:30am 8.7 CALM 0 0 1026.2 - 0.0 - - - - - - -
21/03:00am 9.2 CALM 0 3 1026.4 - 0.0 - - - - - - -
21/02:30am 10.1 ENE 1 3 1026.5 - 0.0 - - - - - - -
21/02:00am 9.7 CALM 0 0 1026.7 - 0.0 - - - - - - -

Other Formats:

Comma delimited format used in spreadsheet applications
http://www.bom.gov.au/fwo/IDV60701/IDV60701.95936.axf

JavaScript Object Notation format (JSON) in row-major order
http://www.bom.gov.au/fwo/IDV60701/IDV60701.95936.json